St. John's, Newfoundland and Labrador

1:31 PM NDT on August 31, 2015 (GMT -0230)
St. John's International | | Change Station
CLOSE
Current Station
Airport
Location: St. John's,
Elevation: 459 ft
Nearby Weather Stations

Elev 459 ft 47.62 °N, 52.74 °W | Updated 1 hour ago

Overcast
Overcast
73 °F
Feels Like 73 °F
N
10
Wind Variable Wind from WSW
Gusts 21 mph

Today
High -- | Low -- °F
--% Chance of Precip.
Yesterday
High -- | Low -- °F
Precip. -- in
6:17 AM 7:44 PM
Waning Gibbous, 95% visible
Pressure 29.91 in
Visibility 15.0 miles
Clouds Scattered Clouds 2800 ft
Overcast 20000 ft
Dew Point 63 °F
Humidity 69%
Rainfall 0.00 in
Snow Depth Not available.
UV 3 out of 12
Pollen Not available.
Air Quality Not available.
Flu Activity Not available.
METAR CYYT 311500Z 25009G18KT 15SM SCT028 OVC200 23/17 A2991 RMK CU3CI5 SLP129 DENSITY ALT 1400FT
Pressure 29.91 in
Visibility 15.0 miles
Clouds Scattered Clouds 2800 ft
Overcast 20000 ft
Dew Point 63 °F
Humidity 69%
Rainfall 0.00 in
Snow Depth Not available.
UV 3 out of 12
Pollen Not available.
Air Quality Not available.
Flu Activity Not available.
METAR CYYT 311500Z 25009G18KT 15SM SCT028 OVC200 23/17 A2991 RMK CU3CI5 SLP129 DENSITY ALT 1400FT

10-Day Weather Forecast

×

Almanac

Astronomy

Aug. 31, 2015 Rise Set
Actual Time
Civil Twilight
Nautical Twilight
Astronomical Twilight
Moon
Length of Visible Light
Length of Day
Tomorrow will be .
, % of the Moon is Illuminated

Today's Extremes

Country Highs Country Lows

Community

WunderPhotos

Upload Photos

1,851,298 photos uploaded!

WunderBlogs® & News

Nearby

Air Quality

  Air Quality AQ Index Pollutant
Not available.

Snow Depth

Station Depth Elevation

Earthquake Activity

City Distance Mag. Time & Date
Minimum magnitude displayed is 2.5.

Coastal Water Temperatures

Place Temperature

Stations

Nearby Weather Stations

Station Location Temp. Windchill Dew Point Humidity Wind Precip. Elev Updated Type